Time,TemperatureF,DewpointF,PressureIn,WindDirection,WindDirectionDegrees,WindSpeedMPH,WindSpeedGustMPH,Humidity,HourlyPrecipIn,Conditions,Clouds,dailyrainin,SoftwareType,DateUTC
2013-05-17 00:04:00,48.0,41.0,29.82,WSW,257,0.0,0.0,78,0.00,,,0.00,weatherlink.com 1.10,2013-05-17 04:04:00,
2013-05-17 00:19:00,47.7,41.0,29.83,West,261,0.0,1.0,78,0.00,,,0.00,weatherlink.com 1.10,2013-05-17 04:19:00,
2013-05-17 00:34:00,47.1,41.0,29.83,WSW,242,0.0,0.0,80,0.00,,,0.00,weatherlink.com 1.10,2013-05-17 04:34:00,
2013-05-17 00:49:00,46.8,41.0,29.83,SW,230,0.0,0.0,80,0.00,,,0.00,weatherlink.com 1.10,2013-05-17 04:49:00,
2013-05-17 01:04:00,46.7,41.0,29.83,NW,317,0.0,3.0,79,0.00,,,0.00,weatherlink.com 1.10,2013-05-17 05:04:00,
2013-05-17 01:19:00,45.9,39.0,29.84,NNE,23,0.0,1.0,78,0.00,,,0.00,weatherlink.com 1.10,2013-05-17 05:19:00,
2013-05-17 01:34:00,45.6,39.0,29.84,WSW,257,0.0,0.0,78,0.00,,,0.00,weatherlink.com 1.10,2013-05-17 05:34:00,
2013-05-17 01:49:00,45.4,39.0,29.85,SW,236,0.0,1.0,77,0.00,,,0.00,weatherlink.com 1.10,2013-05-17 05:49:00,
2013-05-17 02:04:00,45.2,39.0,29.85,West,279,0.0,2.0,78,0.00,,,0.00,weatherlink.com 1.10,2013-05-17 06:04:00,
2013-05-17 02:20:00,44.9,38.0,29.85,SSW,202,0.0,4.0,77,0.00,,,0.00,weatherlink.com 1.10,2013-05-17 06:20:00,
2013-05-17 02:35:00,44.8,38.0,29.85,SSE,155,0.0,0.0,78,0.00,,,0.00,weatherlink.com 1.10,2013-05-17 06:35:00,
2013-05-17 02:50:00,44.7,39.0,29.85,SSE,163,0.0,0.0,80,0.00,,,0.00,weatherlink.com 1.10,2013-05-17 06:50:00,
2013-05-17 03:05:00,44.6,39.0,29.86,SSE,163,0.0,0.0,80,0.00,,,0.00,weatherlink.com 1.10,2013-05-17 07:05:00,
2013-05-17 03:20:00,44.4,39.0,29.86,WSW,256,0.0,0.0,80,0.00,,,0.00,weatherlink.com 1.10,2013-05-17 07:20:00,
2013-05-17 03:35:00,44.3,39.0,29.87,WSW,255,0.0,0.0,81,0.00,,,0.00,weatherlink.com 1.10,2013-05-17 07:35:00,
2013-05-17 03:50:00,44.1,39.0,29.87,WSW,256,0.0,0.0,81,0.00,,,0.00,weatherlink.com 1.10,2013-05-17 07:50:00,
2013-05-17 04:05:00,43.9,39.0,29.88,WSW,256,0.0,0.0,82,0.00,,,0.00,weatherlink.com 1.10,2013-05-17 08:05:00,
2013-05-17 04:20:00,43.7,39.0,29.88,WSW,256,0.0,0.0,82,0.00,,,0.00,weatherlink.com 1.10,2013-05-17 08:20:00,
2013-05-17 04:35:00,43.6,39.0,29.89,WSW,256,0.0,0.0,83,0.00,,,0.00,weatherlink.com 1.10,2013-05-17 08:35:00,
2013-05-17 04:50:00,43.6,39.0,29.89,WSW,240,0.0,0.0,83,0.00,,,0.00,weatherlink.com 1.10,2013-05-17 08:50:00,
2013-05-17 05:05:00,43.6,39.0,29.90,WSW,240,0.0,0.0,84,0.00,,,0.00,weatherlink.com 1.10,2013-05-17 09:05:00,
2013-05-17 05:20:00,43.5,39.0,29.91,WSW,240,0.0,0.0,85,0.00,,,0.00,weatherlink.com 1.10,2013-05-17 09:20:00,
2013-05-17 05:35:00,43.5,39.0,29.91,NW,306,0.0,3.0,84,0.00,,,0.00,weatherlink.com 1.10,2013-05-17 09:35:00,
2013-05-17 05:50:00,43.3,39.0,29.92,SW,221,0.0,1.0,85,0.00,,,0.00,weatherlink.com 1.10,2013-05-17 09:50:00,
2013-05-17 06:05:00,43.3,39.0,29.93,West,262,0.0,0.0,85,0.00,,,0.00,weatherlink.com 1.10,2013-05-17 10:05:00,
2013-05-17 06:20:00,43.3,39.0,29.93,WSW,256,0.0,1.0,86,0.00,,,0.00,weatherlink.com 1.10,2013-05-17 10:20:00,
2013-05-17 06:35:00,43.2,40.0,29.94,NW,304,0.0,1.0,87,0.00,,,0.00,weatherlink.com 1.10,2013-05-17 10:35:00,
2013-05-17 06:50:00,43.3,40.0,29.95,West,276,0.0,1.0,88,0.00,,,0.00,weatherlink.com 1.10,2013-05-17 10:50:00,
2013-05-17 07:05:00,43.3,40.0,29.96,West,275,0.0,0.0,88,0.00,,,0.00,weatherlink.com 1.10,2013-05-17 11:05:00,
2013-05-17 07:20:00,43.0,41.0,29.97,SW,227,0.0,1.0,91,0.00,,,0.00,weatherlink.com 1.10,2013-05-17 11:20:00,
2013-05-17 07:35:00,42.7,41.0,29.98,SW,227,0.0,1.0,93,0.00,,,0.00,weatherlink.com 1.10,2013-05-17 11:35:00,
2013-05-17 07:50:00,42.5,41.0,29.98,SW,226,0.0,0.0,94,0.00,,,0.00,weatherlink.com 1.10,2013-05-17 11:50:00,
2013-05-17 08:05:00,42.9,42.0,29.99,SSW,199,0.0,1.0,96,0.00,,,0.00,weatherlink.com 1.10,2013-05-17 12:05:00,
2013-05-17 08:20:00,43.3,42.0,29.99,NE,36,0.0,4.0,96,0.00,,,0.00,weatherlink.com 1.10,2013-05-17 12:20:00,
2013-05-17 08:35:00,43.3,42.0,30.00,WSW,242,0.0,2.0,96,0.00,,,0.00,weatherlink.com 1.10,2013-05-17 12:35:00,
2013-05-17 08:50:00,43.9,43.0,30.00,WSW,241,0.0,1.0,96,0.00,,,0.00,weatherlink.com 1.10,2013-05-17 12:50:00,
2013-05-17 09:05:00,44.3,43.0,30.01,SW,216,0.0,1.0,95,0.00,,,0.00,weatherlink.com 1.10,2013-05-17 13:05:00,
2013-05-17 09:20:00,45.2,44.0,30.01,WSW,257,0.0,1.0,94,0.00,,,0.00,weatherlink.com 1.10,2013-05-17 13:20:00,
2013-05-17 09:35:00,44.9,42.0,30.02,SSW,193,0.0,3.0,89,0.00,,,0.00,weatherlink.com 1.10,2013-05-17 13:35:00,
2013-05-17 09:50:00,44.4,42.0,30.03,ESE,103,1.0,2.0,90,0.00,,,0.00,weatherlink.com 1.10,2013-05-17 13:50:00,
2013-05-17 10:06:00,45.6,43.0,30.03,ESE,122,0.0,3.0,89,0.00,,,0.00,weatherlink.com 1.10,2013-05-17 14:06:00,
2013-05-17 10:21:00,46.3,42.0,30.04,WSW,248,1.0,2.0,84,0.00,,,0.00,weatherlink.com 1.10,2013-05-17 14:21:00,
2013-05-17 10:36:00,45.9,41.0,30.05,ENE,68,0.0,2.0,82,0.00,,,0.00,weatherlink.com 1.10,2013-05-17 14:36:00,
2013-05-17 10:51:00,47.5,42.0,30.05,SW,234,0.0,3.0,82,0.00,,,0.00,weatherlink.com 1.10,2013-05-17 14:51:00,
2013-05-17 11:06:00,47.9,41.0,30.06,ENE,76,0.0,2.0,77,0.00,,,0.00,weatherlink.com 1.10,2013-05-17 15:06:00,
2013-05-17 11:21:00,48.0,41.0,30.07,West,265,0.0,2.0,78,0.00,,,0.00,weatherlink.com 1.10,2013-05-17 15:21:00,
2013-05-17 11:36:00,49.5,43.0,30.07,East,96,1.0,2.0,78,0.00,,,0.00,weatherlink.com 1.10,2013-05-17 15:36:00,
2013-05-17 11:51:00,50.8,43.0,30.07,SSE,159,1.0,3.0,74,0.00,,,0.00,weatherlink.com 1.10,2013-05-17 15:51:00,
2013-05-17 12:06:00,52.1,41.0,30.06,SW,227,1.0,4.0,67,0.00,,,0.00,weatherlink.com 1.10,2013-05-17 16:06:00,
2013-05-17 12:21:00,53.5,43.0,30.06,SW,217,2.0,2.0,67,0.00,,,0.00,weatherlink.com 1.10,2013-05-17 16:21:00,
2013-05-17 12:36:00,54.6,41.0,30.06,SE,140,3.0,4.0,60,0.00,,,0.00,weatherlink.com 1.10,2013-05-17 16:36:00,
2013-05-17 12:51:00,56.8,40.0,30.06,South,191,2.0,6.0,54,0.00,,,0.00,weatherlink.com 1.10,2013-05-17 16:51:00,
2013-05-17 13:06:00,57.5,41.0,30.06,SE,129,1.0,3.0,55,0.00,,,0.00,weatherlink.com 1.10,2013-05-17 17:06:00,
2013-05-17 13:21:00,55.9,38.0,30.07,WNW,303,1.0,2.0,52,0.00,,,0.00,weatherlink.com 1.10,2013-05-17 17:21:00,
2013-05-17 13:36:00,57.1,39.0,30.06,West,277,1.0,3.0,52,0.00,,,0.00,weatherlink.com 1.10,2013-05-17 17:36:00,
2013-05-17 13:51:00,55.9,39.0,30.07,SW,236,3.0,3.0,53,0.00,,,0.00,weatherlink.com 1.10,2013-05-17 17:51:00,
2013-05-17 14:06:00,57.6,39.0,30.07,ESE,120,3.0,5.0,51,0.00,,,0.00,weatherlink.com 1.10,2013-05-17 18:06:00,
2013-05-17 14:21:00,57.1,37.0,30.07,SE,139,2.0,5.0,48,0.00,,,0.00,weatherlink.com 1.10,2013-05-17 18:21:00,
2013-05-17 14:36:00,56.3,37.0,30.08,SSE,160,1.0,5.0,48,0.00,,,0.00,weatherlink.com 1.10,2013-05-17 18:36:00,
2013-05-17 14:51:00,57.3,39.0,30.08,West,264,0.0,4.0,50,0.00,,,0.00,weatherlink.com 1.10,2013-05-17 18:51:00,
2013-05-17 15:06:00,57.5,38.0,30.08,ESE,119,7.0,8.0,48,0.00,,,0.00,weatherlink.com 1.10,2013-05-17 19:06:00,
2013-05-17 15:21:00,58.0,37.0,30.09,NW,317,0.0,5.0,46,0.00,,,0.00,weatherlink.com 1.10,2013-05-17 19:21:00,
2013-05-17 15:36:00,57.5,38.0,30.09,SW,227,0.0,6.0,48,0.00,,,0.00,weatherlink.com 1.10,2013-05-17 19:36:00,
2013-05-17 15:51:00,57.4,38.0,30.09,NW,311,1.0,5.0,49,0.00,,,0.00,weatherlink.com 1.10,2013-05-17 19:51:00,
2013-05-17 16:06:00,56.5,37.0,30.09,SW,227,0.0,3.0,49,0.00,,,0.00,weatherlink.com 1.10,2013-05-17 20:06:00,
2013-05-17 16:21:00,56.8,38.0,30.10,WSW,252,1.0,5.0,50,0.00,,,0.00,weatherlink.com 1.10,2013-05-17 20:21:00,
2013-05-17 16:36:00,57.3,38.0,30.10,SW,219,2.0,3.0,48,0.00,,,0.00,weatherlink.com 1.10,2013-05-17 20:36:00,
2013-05-17 16:51:00,56.2,38.0,30.11,West,265,1.0,3.0,50,0.00,,,0.00,weatherlink.com 1.10,2013-05-17 20:51:00,
2013-05-17 17:06:00,56.3,39.0,30.11,WSW,241,2.0,4.0,52,0.00,,,0.00,weatherlink.com 1.10,2013-05-17 21:06:00,
2013-05-17 17:21:00,56.0,37.0,30.12,NE,51,0.0,4.0,50,0.00,,,0.00,weatherlink.com 1.10,2013-05-17 21:21:00,
2013-05-17 17:36:00,55.8,38.0,30.12,SSW,196,1.0,2.0,51,0.00,,,0.00,weatherlink.com 1.10,2013-05-17 21:36:00,
2013-05-17 17:51:00,55.4,38.0,30.12,SW,221,2.0,3.0,53,0.00,,,0.00,weatherlink.com 1.10,2013-05-17 21:51:00,
2013-05-17 18:06:00,55.3,38.0,30.13,NE,36,0.0,3.0,53,0.00,,,0.00,weatherlink.com 1.10,2013-05-17 22:06:00,
2013-05-17 18:21:00,54.9,39.0,30.13,SW,234,0.0,1.0,55,0.00,,,0.00,weatherlink.com 1.10,2013-05-17 22:21:00,
2013-05-17 18:37:00,54.0,39.0,30.14,West,259,0.0,2.0,58,0.00,,,0.00,weatherlink.com 1.10,2013-05-17 22:37:00,
2013-05-17 18:52:00,53.4,40.0,30.15,WNW,288,1.0,1.0,62,0.00,,,0.00,weatherlink.com 1.10,2013-05-17 22:52:00,
2013-05-17 19:07:00,53.2,41.0,30.16,WSW,241,0.0,1.0,64,0.00,,,0.00,weatherlink.com 1.10,2013-05-17 23:07:00,
2013-05-17 19:22:00,53.0,40.0,30.16,WSW,256,0.0,2.0,61,0.00,,,0.00,weatherlink.com 1.10,2013-05-17 23:22:00,
2013-05-17 19:37:00,52.5,41.0,30.16,West,259,0.0,1.0,64,0.00,,,0.00,weatherlink.com 1.10,2013-05-17 23:37:00,
2013-05-17 19:52:00,51.6,40.0,30.17,WSW,258,0.0,0.0,64,0.00,,,0.00,weatherlink.com 1.10,2013-05-17 23:52:00,
2013-05-17 20:07:00,50.1,40.0,30.17,West,259,1.0,1.0,69,0.00,,,0.00,weatherlink.com 1.10,2013-05-18 00:07:00,
2013-05-17 20:22:00,48.1,39.0,30.17,NNW,331,1.0,1.0,72,0.00,,,0.00,weatherlink.com 1.10,2013-05-18 00:22:00,
2013-05-17 20:37:00,46.7,40.0,30.18,NNE,19,1.0,1.0,76,0.00,,,0.00,weatherlink.com 1.10,2013-05-18 00:37:00,
2013-05-17 20:52:00,45.8,39.0,30.19,NNE,19,1.0,1.0,78,0.00,,,0.00,weatherlink.com 1.10,2013-05-18 00:52:00,
2013-05-17 21:07:00,45.5,39.0,30.19,NNE,25,1.0,1.0,79,0.00,,,0.00,weatherlink.com 1.10,2013-05-18 01:07:00,
2013-05-17 21:22:00,45.1,39.0,30.19,NNE,25,0.0,1.0,80,0.00,,,0.00,weatherlink.com 1.10,2013-05-18 01:22:00,
2013-05-17 21:37:00,45.5,40.0,30.20,NNE,25,0.0,1.0,80,0.00,,,0.00,weatherlink.com 1.10,2013-05-18 01:37:00,
2013-05-17 21:52:00,46.2,41.0,30.20,NNE,25,0.0,1.0,81,0.00,,,0.00,weatherlink.com 1.10,2013-05-18 01:52:00,
2013-05-17 22:07:00,46.8,41.0,30.21,NE,44,0.0,1.0,79,0.00,,,0.00,weatherlink.com 1.10,2013-05-18 02:07:00,
2013-05-17 22:22:00,46.9,40.0,30.21,NE,44,0.0,0.0,78,0.00,,,0.00,weatherlink.com 1.10,2013-05-18 02:22:00,
2013-05-17 22:37:00,47.1,41.0,30.21,NE,44,0.0,1.0,79,0.00,,,0.00,weatherlink.com 1.10,2013-05-18 02:37:00,
2013-05-17 22:52:00,47.2,41.0,30.21,NE,44,0.0,0.0,78,0.00,,,0.00,weatherlink.com 1.10,2013-05-18 02:52:00,
2013-05-17 23:07:00,47.2,41.0,30.21,NE,44,0.0,1.0,78,0.00,,,0.00,weatherlink.com 1.10,2013-05-18 03:07:00,
2013-05-17 23:22:00,46.8,40.0,30.22,NE,44,0.0,0.0,77,0.00,,,0.00,weatherlink.com 1.10,2013-05-18 03:22:00,
2013-05-17 23:37:00,46.3,40.0,30.22,NE,44,0.0,0.0,78,0.00,,,0.00,weatherlink.com 1.10,2013-05-18 03:37:00,
2013-05-17 23:52:00,46.2,40.0,30.23,NE,44,0.0,0.0,79,0.00,,,0.00,weatherlink.com 1.10,2013-05-18 03:52:00,